sensor_id;sensor_type;location;lat;lon;timestamp;pressure;altitude;pressure_sealevel;temperature
40968;BMP280;57377;45.130;6.038;2022-11-06T00:00:48;92900.00;;;7.75
40968;BMP280;57377;45.130;6.038;2022-11-06T00:03:14;92893.38;;;6.70
40968;BMP280;57377;45.130;6.038;2022-11-06T00:05:43;92893.47;;;6.89
40968;BMP280;57377;45.130;6.038;2022-11-06T00:08:32;92889.88;;;7.20
40968;BMP280;57377;45.130;6.038;2022-11-06T00:10:59;92877.00;;;7.64
40968;BMP280;57377;45.130;6.038;2022-11-06T00:13:47;92863.25;;;7.73
40968;BMP280;57377;45.130;6.038;2022-11-06T00:16:19;92867.41;;;7.40
40968;BMP280;57377;45.130;6.038;2022-11-06T00:18:59;92872.53;;;7.15
40968;BMP280;57377;45.130;6.038;2022-11-06T00:21:37;92860.94;;;7.37
40968;BMP280;57377;45.130;6.038;2022-11-06T00:24:05;92867.88;;;7.07
40968;BMP280;57377;45.130;6.038;2022-11-06T00:26:37;92862.47;;;7.58
40968;BMP280;57377;45.130;6.038;2022-11-06T00:29:13;92857.03;;;7.74
40968;BMP280;57377;45.130;6.038;2022-11-06T00:31:40;92849.53;;;7.63
40968;BMP280;57377;45.130;6.038;2022-11-06T00:34:09;92844.88;;;7.60
40968;BMP280;57377;45.130;6.038;2022-11-06T00:36:46;92845.13;;;7.54
40968;BMP280;57377;45.130;6.038;2022-11-06T00:39:58;92832.19;;;7.64
40968;BMP280;57377;45.130;6.038;2022-11-06T00:42:54;92830.38;;;7.30
40968;BMP280;57377;45.130;6.038;2022-11-06T00:46:11;92827.03;;;7.29
40968;BMP280;57377;45.130;6.038;2022-11-06T00:49:22;92834.00;;;6.94
40968;BMP280;57377;45.130;6.038;2022-11-06T00:52:53;92828.31;;;7.46
40968;BMP280;57377;45.130;6.038;2022-11-06T00:55:21;92837.09;;;7.75
40968;BMP280;57377;45.130;6.038;2022-11-06T00:57:51;92833.50;;;7.27
40968;BMP280;57377;45.130;6.038;2022-11-06T01:00:27;92834.53;;;7.11
40968;BMP280;57377;45.130;6.038;2022-11-06T01:03:49;92839.19;;;7.14
40968;BMP280;57377;45.130;6.038;2022-11-06T01:14:12;92846.41;;;6.97
40968;BMP280;57377;45.130;6.038;2022-11-06T01:17:18;92845.84;;;6.75
40968;BMP280;57377;45.130;6.038;2022-11-06T01:19:44;92851.06;;;7.05
40968;BMP280;57377;45.130;6.038;2022-11-06T01:22:11;92851.09;;;7.25
40968;BMP280;57377;45.130;6.038;2022-11-06T01:24:37;92846.44;;;7.36
40968;BMP280;57377;45.130;6.038;2022-11-06T01:27:05;92845.91;;;7.34
40968;BMP280;57377;45.130;6.038;2022-11-06T01:29:31;92842.50;;;6.85
40968;BMP280;57377;45.130;6.038;2022-11-06T01:31:57;92838.66;;;6.97
40968;BMP280;57377;45.130;6.038;2022-11-06T01:34:22;92829.28;;;6.62
40968;BMP280;57377;45.130;6.038;2022-11-06T01:36:49;92847.66;;;6.70
40968;BMP280;57377;45.130;6.038;2022-11-06T01:39:15;92841.59;;;6.40
40968;BMP280;57377;45.130;6.038;2022-11-06T01:41:45;92835.38;;;6.36
40968;BMP280;57377;45.130;6.038;2022-11-06T01:50:07;92817.09;;;6.57
40968;BMP280;57377;45.130;6.038;2022-11-06T01:52:37;92812.94;;;6.41
40968;BMP280;57377;45.130;6.038;2022-11-06T01:55:12;92810.91;;;6.53
40968;BMP280;57377;45.130;6.038;2022-11-06T01:57:41;92808.63;;;6.81
40968;BMP280;57377;45.130;6.038;2022-11-06T02:00:08;92815.91;;;6.89
40968;BMP280;57377;45.130;6.038;2022-11-06T02:03:02;92816.66;;;6.90
40968;BMP280;57377;45.130;6.038;2022-11-06T02:05:32;92814.31;;;6.93
40968;BMP280;57377;45.130;6.038;2022-11-06T02:08:06;92808.88;;;6.75
40968;BMP280;57377;45.130;6.038;2022-11-06T02:10:35;92814.53;;;6.62
40968;BMP280;57377;45.130;6.038;2022-11-06T02:16:20;92809.44;;;6.87
40968;BMP280;57377;45.130;6.038;2022-11-06T02:28:02;92799.34;;;7.25
40968;BMP280;57377;45.130;6.038;2022-11-06T02:31:04;92792.34;;;7.01
40968;BMP280;57377;45.130;6.038;2022-11-06T02:34:04;92794.41;;;6.79
40968;BMP280;57377;45.130;6.038;2022-11-06T02:36:59;92792.09;;;6.87
40968;BMP280;57377;45.130;6.038;2022-11-06T02:39:32;92788.97;;;6.85
40968;BMP280;57377;45.130;6.038;2022-11-06T02:42:01;92794.69;;;6.87
40968;BMP280;57377;45.130;6.038;2022-11-06T02:44:30;92773.75;;;7.08
40968;BMP280;57377;45.130;6.038;2022-11-06T02:47:02;92771.94;;;6.79
40968;BMP280;57377;45.130;6.038;2022-11-06T02:50:02;92772.41;;;6.81
40968;BMP280;57377;45.130;6.038;2022-11-06T02:52:39;92766.47;;;6.91
40968;BMP280;57377;45.130;6.038;2022-11-06T02:55:14;92766.47;;;6.81
40968;BMP280;57377;45.130;6.038;2022-11-06T02:57:59;92766.75;;;6.89
40968;BMP280;57377;45.130;6.038;2022-11-06T03:00:54;92766.22;;;6.77
40968;BMP280;57377;45.130;6.038;2022-11-06T03:03:26;92767.19;;;6.32
40968;BMP280;57377;45.130;6.038;2022-11-06T03:06:11;92765.94;;;6.59
40968;BMP280;57377;45.130;6.038;2022-11-06T03:08:52;92761.53;;;6.55
40968;BMP280;57377;45.130;6.038;2022-11-06T03:11:32;92754.53;;;6.36
40968;BMP280;57377;45.130;6.038;2022-11-06T03:14:26;92766.72;;;6.70
40968;BMP280;57377;45.130;6.038;2022-11-06T03:17:10;92759.00;;;6.84
40968;BMP280;57377;45.130;6.038;2022-11-06T03:20:11;92766.28;;;6.02
40968;BMP280;57377;45.130;6.038;2022-11-06T03:22:51;92769.25;;;6.35
40968;BMP280;57377;45.130;6.038;2022-11-06T03:25:28;92767.72;;;6.34
40968;BMP280;57377;45.130;6.038;2022-11-06T03:28:06;92780.69;;;6.59
40968;BMP280;57377;45.130;6.038;2022-11-06T03:31:01;92764.59;;;6.37
40968;BMP280;57377;45.130;6.038;2022-11-06T03:33:41;92774.47;;;6.60
40968;BMP280;57377;45.130;6.038;2022-11-06T03:38:53;92782.22;;;6.65
40968;BMP280;57377;45.130;6.038;2022-11-06T03:41:32;92779.16;;;7.12
40968;BMP280;57377;45.130;6.038;2022-11-06T03:44:03;92776.56;;;6.77
40968;BMP280;57377;45.130;6.038;2022-11-06T03:46:37;92773.09;;;6.28
40968;BMP280;57377;45.130;6.038;2022-11-06T03:49:14;92772.34;;;6.32
40968;BMP280;57377;45.130;6.038;2022-11-06T03:51:46;92772.91;;;6.49
40968;BMP280;57377;45.130;6.038;2022-11-06T03:58:11;92788.97;;;6.75
40968;BMP280;57377;45.130;6.038;2022-11-06T04:01:03;92798.72;;;6.39
40968;BMP280;57377;45.130;6.038;2022-11-06T04:04:13;92798.00;;;6.58
40968;BMP280;57377;45.130;6.038;2022-11-06T04:06:57;92791.72;;;6.35
40968;BMP280;57377;45.130;6.038;2022-11-06T04:09:44;92784.03;;;6.64
40968;BMP280;57377;45.130;6.038;2022-11-06T04:12:52;92783.53;;;6.67
40968;BMP280;57377;45.130;6.038;2022-11-06T04:15:50;92787.66;;;6.58
40968;BMP280;57377;45.130;6.038;2022-11-06T04:18:47;92795.94;;;6.60
40968;BMP280;57377;45.130;6.038;2022-11-06T04:24:02;92794.38;;;6.59
40968;BMP280;57377;45.130;6.038;2022-11-06T04:33:49;92786.34;;;6.51
40968;BMP280;57377;45.130;6.038;2022-11-06T04:36:55;92794.16;;;6.95
40968;BMP280;57377;45.130;6.038;2022-11-06T04:40:06;92805.38;;;6.20
40968;BMP280;57377;45.130;6.038;2022-11-06T04:46:09;92832.47;;;6.18
40968;BMP280;57377;45.130;6.038;2022-11-06T04:48:57;92824.38;;;6.00
40968;BMP280;57377;45.130;6.038;2022-11-06T04:51:51;92825.47;;;6.08
40968;BMP280;57377;45.130;6.038;2022-11-06T04:55:20;92827.31;;;6.18
40968;BMP280;57377;45.130;6.038;2022-11-06T04:59:00;92806.84;;;6.02
40968;BMP280;57377;45.130;6.038;2022-11-06T05:01:57;92810.63;;;6.50
40968;BMP280;57377;45.130;6.038;2022-11-06T05:04:55;92799.47;;;6.35
40968;BMP280;57377;45.130;6.038;2022-11-06T05:11:40;92788.97;;;6.61
40968;BMP280;57377;45.130;6.038;2022-11-06T05:15:38;92788.88;;;6.36
40968;BMP280;57377;45.130;6.038;2022-11-06T05:18:50;92782.91;;;6.26
40968;BMP280;57377;45.130;6.038;2022-11-06T05:21:54;92791.53;;;6.51
40968;BMP280;57377;45.130;6.038;2022-11-06T05:24:41;92797.53;;;5.96
40968;BMP280;57377;45.130;6.038;2022-11-06T05:31:00;92783.78;;;5.85
40968;BMP280;57377;45.130;6.038;2022-11-06T05:33:45;92775.88;;;6.11
40968;BMP280;57377;45.130;6.038;2022-11-06T05:36:33;92775.88;;;6.11
40968;BMP280;57377;45.130;6.038;2022-11-06T05:38:59;92776.75;;;6.32
40968;BMP280;57377;45.130;6.038;2022-11-06T05:41:28;92765.63;;;6.36
40968;BMP280;57377;45.130;6.038;2022-11-06T05:44:01;92769.22;;;6.20
40968;BMP280;57377;45.130;6.038;2022-11-06T05:46:26;92760.00;;;6.54
40968;BMP280;57377;45.130;6.038;2022-11-06T05:48:52;92764.84;;;6.26
40968;BMP280;57377;45.130;6.038;2022-11-06T05:51:18;92740.88;;;6.65
40968;BMP280;57377;45.130;6.038;2022-11-06T05:53:45;92741.91;;;6.83
40968;BMP280;57377;45.130;6.038;2022-11-06T05:56:12;92741.66;;;7.04
40968;BMP280;57377;45.130;6.038;2022-11-06T05:58:38;92733.66;;;7.06
40968;BMP280;57377;45.130;6.038;2022-11-06T06:01:04;92738.53;;;6.53
40968;BMP280;57377;45.130;6.038;2022-11-06T06:03:31;92728.22;;;6.68
40968;BMP280;57377;45.130;6.038;2022-11-06T06:05:57;92723.06;;;6.73
40968;BMP280;57377;45.130;6.038;2022-11-06T06:08:23;92722.78;;;6.60
40968;BMP280;57377;45.130;6.038;2022-11-06T06:10:50;92726.09;;;6.45
40968;BMP280;57377;45.130;6.038;2022-11-06T06:13:16;92723.56;;;6.60
40968;BMP280;57377;45.130;6.038;2022-11-06T06:15:42;92728.44;;;6.42
40968;BMP280;57377;45.130;6.038;2022-11-06T06:18:08;92719.91;;;6.22
40968;BMP280;57377;45.130;6.038;2022-11-06T06:20:35;92711.94;;;6.63
40968;BMP280;57377;45.130;6.038;2022-11-06T06:23:01;92712.41;;;6.45
40968;BMP280;57377;45.130;6.038;2022-11-06T06:25:28;92711.34;;;6.21
40968;BMP280;57377;45.130;6.038;2022-11-06T06:27:56;92704.41;;;6.41
40968;BMP280;57377;45.130;6.038;2022-11-06T06:30:24;92703.13;;;6.29
40968;BMP280;57377;45.130;6.038;2022-11-06T06:32:50;92707.75;;;6.32
40968;BMP280;57377;45.130;6.038;2022-11-06T06:35:21;92705.94;;;6.33
40968;BMP280;57377;45.130;6.038;2022-11-06T06:37:53;92699.50;;;6.50
40968;BMP280;57377;45.130;6.038;2022-11-06T06:40:20;92697.94;;;6.34
40968;BMP280;57377;45.130;6.038;2022-11-06T06:42:47;92694.56;;;6.34
40968;BMP280;57377;45.130;6.038;2022-11-06T06:45:15;92693.31;;;6.61
40968;BMP280;57377;45.130;6.038;2022-11-06T06:47:41;92692.28;;;6.52
40968;BMP280;57377;45.130;6.038;2022-11-06T06:50:08;92704.44;;;6.61
40968;BMP280;57377;45.130;6.038;2022-11-06T06:52:35;92696.41;;;6.58
40968;BMP280;57377;45.130;6.038;2022-11-06T06:55:00;92720.66;;;6.22
40968;BMP280;57377;45.130;6.038;2022-11-06T06:57:26;92704.41;;;6.27
40968;BMP280;57377;45.130;6.038;2022-11-06T06:59:51;92702.34;;;6.43
40968;BMP280;57377;45.130;6.038;2022-11-06T07:02:19;92705.94;;;6.23
40968;BMP280;57377;45.130;6.038;2022-11-06T07:04:44;92699.72;;;6.19
40968;BMP280;57377;45.130;6.038;2022-11-06T07:07:10;92702.34;;;6.43
40968;BMP280;57377;45.130;6.038;2022-11-06T07:09:36;92709.59;;;6.56
40968;BMP280;57377;45.130;6.038;2022-11-06T07:12:01;92705.72;;;6.78
40968;BMP280;57377;45.130;6.038;2022-11-06T07:14:27;92703.13;;;6.59
40968;BMP280;57377;45.130;6.038;2022-11-06T07:16:52;92710.38;;;6.71
40968;BMP280;57377;45.130;6.038;2022-11-06T07:19:18;92714.53;;;6.77
40968;BMP280;57377;45.130;6.038;2022-11-06T07:21:43;92720.72;;;6.76
40968;BMP280;57377;45.130;6.038;2022-11-06T07:24:09;92718.41;;;7.00
40968;BMP280;57377;45.130;6.038;2022-11-06T07:26:35;92714.53;;;6.87
40968;BMP280;57377;45.130;6.038;2022-11-06T07:29:00;92722.25;;;7.12
40968;BMP280;57377;45.130;6.038;2022-11-06T07:31:26;92709.34;;;6.68
40968;BMP280;57377;45.130;6.038;2022-11-06T07:33:51;92715.56;;;7.01
40968;BMP280;57377;45.130;6.038;2022-11-06T07:36:17;92710.06;;;7.32
40968;BMP280;57377;45.130;6.038;2022-11-06T07:38:42;92717.03;;;7.32
40968;BMP280;57377;45.130;6.038;2022-11-06T07:41:13;92719.66;;;7.17
40968;BMP280;57377;45.130;6.038;2022-11-06T07:43:39;92718.63;;;7.03
40968;BMP280;57377;45.130;6.038;2022-11-06T07:46:14;92721.25;;;6.78
40968;BMP280;57377;45.130;6.038;2022-11-06T07:49:06;92724.34;;;6.56
40968;BMP280;57377;45.130;6.038;2022-11-06T07:51:34;92716.25;;;6.18
40968;BMP280;57377;45.130;6.038;2022-11-06T07:54:05;92719.16;;;6.71
40968;BMP280;57377;45.130;6.038;2022-11-06T07:56:31;92721.75;;;6.75
40968;BMP280;57377;45.130;6.038;2022-11-06T07:59:03;92717.63;;;6.84
40968;BMP280;57377;45.130;6.038;2022-11-06T08:01:29;92714.75;;;7.01
40968;BMP280;57377;45.130;6.038;2022-11-06T08:03:55;92714.00;;;6.56
40968;BMP280;57377;45.130;6.038;2022-11-06T08:06:20;92709.34;;;6.92
40968;BMP280;57377;45.130;6.038;2022-11-06T08:08:46;92694.06;;;7.05
40968;BMP280;57377;45.130;6.038;2022-11-06T08:11:12;92695.63;;;7.11
40968;BMP280;57377;45.130;6.038;2022-11-06T08:13:38;92694.72;;;7.60
40968;BMP280;57377;45.130;6.038;2022-11-06T08:16:15;92701.44;;;7.71
40968;BMP280;57377;45.130;6.038;2022-11-06T08:18:43;92697.84;;;7.52
40968;BMP280;57377;45.130;6.038;2022-11-06T08:21:33;92686.50;;;7.38
40968;BMP280;57377;45.130;6.038;2022-11-06T08:24:00;92686.38;;;7.78
40968;BMP280;57377;45.130;6.038;2022-11-06T08:26:26;92695.31;;;8.10
40968;BMP280;57377;45.130;6.038;2022-11-06T08:28:52;92686.91;;;7.70
40968;BMP280;57377;45.130;6.038;2022-11-06T08:31:20;92683.41;;;7.27
40968;BMP280;57377;45.130;6.038;2022-11-06T08:33:50;92685.09;;;7.80
40968;BMP280;57377;45.130;6.038;2022-11-06T08:36:15;92682.88;;;8.07
40968;BMP280;57377;45.130;6.038;2022-11-06T08:38:41;92682.81;;;8.22
40968;BMP280;57377;45.130;6.038;2022-11-06T08:41:11;92684.03;;;8.34
40968;BMP280;57377;45.130;6.038;2022-11-06T08:43:42;92683.13;;;8.15
40968;BMP280;57377;45.130;6.038;2022-11-06T08:46:08;92683.19;;;7.96
40968;BMP280;57377;45.130;6.038;2022-11-06T08:48:36;92687.06;;;7.98
40968;BMP280;57377;45.130;6.038;2022-11-06T08:51:03;92665.84;;;8.44
40968;BMP280;57377;45.130;6.038;2022-11-06T08:53:29;92660.41;;;8.73
40968;BMP280;57377;45.130;6.038;2022-11-06T08:55:54;92660.03;;;9.18
40968;BMP280;57377;45.130;6.038;2022-11-06T08:58:19;92656.38;;;9.70
40968;BMP280;57377;45.130;6.038;2022-11-06T09:00:45;92655.19;;;10.22
40968;BMP280;57377;45.130;6.038;2022-11-06T09:03:13;92648.34;;;10.81
40968;BMP280;57377;45.130;6.038;2022-11-06T09:05:41;92641.09;;;11.54
40968;BMP280;57377;45.130;6.038;2022-11-06T09:08:08;92635.59;;;11.69
40968;BMP280;57377;45.130;6.038;2022-11-06T09:10:37;92638.53;;;12.29
40968;BMP280;57377;45.130;6.038;2022-11-06T09:13:04;92636.28;;;12.49
40968;BMP280;57377;45.130;6.038;2022-11-06T09:15:35;92625.63;;;12.59
40968;BMP280;57377;45.130;6.038;2022-11-06T09:18:02;92621.44;;;12.93
40968;BMP280;57377;45.130;6.038;2022-11-06T09:20:28;92634.00;;;12.34
40968;BMP280;57377;45.130;6.038;2022-11-06T09:22:53;92622.28;;;12.80
40968;BMP280;57377;45.130;6.038;2022-11-06T09:25:19;92620.13;;;13.25
40968;BMP280;57377;45.130;6.038;2022-11-06T09:27:51;92619.81;;;13.57
40968;BMP280;57377;45.130;6.038;2022-11-06T09:30:24;92623.75;;;13.46
40968;BMP280;57377;45.130;6.038;2022-11-06T09:33:29;92631.63;;;12.11
40968;BMP280;57377;45.130;6.038;2022-11-06T09:36:34;92621.16;;;12.59
40968;BMP280;57377;45.130;6.038;2022-11-06T09:39:23;92622.94;;;13.15
40968;BMP280;57377;45.130;6.038;2022-11-06T09:45:20;92605.38;;;12.64
40968;BMP280;57377;45.130;6.038;2022-11-06T09:55:15;92616.72;;;13.25
40968;BMP280;57377;45.130;6.038;2022-11-06T09:58:17;92611.94;;;12.40
40968;BMP280;57377;45.130;6.038;2022-11-06T10:01:23;92616.78;;;12.47
40968;BMP280;57377;45.130;6.038;2022-11-06T10:03:54;92616.19;;;12.71
40968;BMP280;57377;45.130;6.038;2022-11-06T10:06:42;92606.56;;;13.23
40968;BMP280;57377;45.130;6.038;2022-11-06T10:09:12;92607.69;;;13.31
40968;BMP280;57377;45.130;6.038;2022-11-06T10:15:29;92599.50;;;13.24
40968;BMP280;57377;45.130;6.038;2022-11-06T10:34:35;92590.59;;;13.63
40968;BMP280;57377;45.130;6.038;2022-11-06T10:37:29;92604.53;;;13.50
40968;BMP280;57377;45.130;6.038;2022-11-06T10:40:03;92585.22;;;13.68
40968;BMP280;57377;45.130;6.038;2022-11-06T10:42:35;92586.69;;;13.91
40968;BMP280;57377;45.130;6.038;2022-11-06T10:45:14;92583.63;;;13.89
40968;BMP280;57377;45.130;6.038;2022-11-06T10:51:48;92581.28;;;13.87
40968;BMP280;57377;45.130;6.038;2022-11-06T11:31:49;92530.50;;;15.59
40968;BMP280;57377;45.130;6.038;2022-11-06T11:34:51;92525.03;;;15.44
40968;BMP280;57377;45.130;6.038;2022-11-06T11:41:41;92517.09;;;15.52
40968;BMP280;57377;45.130;6.038;2022-11-06T11:44:22;92522.31;;;15.61
40968;BMP280;57377;45.130;6.038;2022-11-06T11:47:29;92506.63;;;16.01
40968;BMP280;57377;45.130;6.038;2022-11-06T11:50:40;92511.19;;;15.64
40968;BMP280;57377;45.130;6.038;2022-11-06T11:53:19;92498.25;;;16.16
40968;BMP280;57377;45.130;6.038;2022-11-06T11:56:14;92486.69;;;16.49
40968;BMP280;57377;45.130;6.038;2022-11-06T11:58:48;92498.88;;;16.33
40968;BMP280;57377;45.130;6.038;2022-11-06T12:01:38;92501.28;;;16.58
40968;BMP280;57377;45.130;6.038;2022-11-06T12:07:27;92477.78;;;16.94
40968;BMP280;57377;45.130;6.038;2022-11-06T12:09:54;92482.34;;;17.17
40968;BMP280;57377;45.130;6.038;2022-11-06T12:12:44;92482.25;;;16.93
40968;BMP280;57377;45.130;6.038;2022-11-06T12:15:48;92475.03;;;17.34
40968;BMP280;57377;45.130;6.038;2022-11-06T12:18:44;92483.38;;;17.48
40968;BMP280;57377;45.130;6.038;2022-11-06T12:21:48;92479.06;;;17.91
40968;BMP280;57377;45.130;6.038;2022-11-06T12:28:43;92482.56;;;17.24
40968;BMP280;57377;45.130;6.038;2022-11-06T12:33:13;92452.56;;;16.81
40968;BMP280;57377;45.130;6.038;2022-11-06T12:40:53;92432.38;;;17.76
40968;BMP280;57377;45.130;6.038;2022-11-06T12:43:45;92440.63;;;17.74
40968;BMP280;57377;45.130;6.038;2022-11-06T12:46:20;92431.28;;;17.65
40968;BMP280;57377;45.130;6.038;2022-11-06T12:48:59;92432.19;;;17.45
40968;BMP280;57377;45.130;6.038;2022-11-06T13:06:11;92435.91;;;17.33
40968;BMP280;57377;45.130;6.038;2022-11-06T13:12:18;92437.09;;;17.35
40968;BMP280;57377;45.130;6.038;2022-11-06T13:18:21;92434.91;;;17.25
40968;BMP280;57377;45.130;6.038;2022-11-06T13:23:30;92422.84;;;17.12
40968;BMP280;57377;45.130;6.038;2022-11-06T13:26:14;92422.25;;;16.83
40968;BMP280;57377;45.130;6.038;2022-11-06T13:29:03;92425.41;;;16.77
40968;BMP280;57377;45.130;6.038;2022-11-06T13:31:54;92419.94;;;16.94
40968;BMP280;57377;45.130;6.038;2022-11-06T13:34:31;92415.97;;;16.64
40968;BMP280;57377;45.130;6.038;2022-11-06T13:37:28;92410.94;;;16.83
40968;BMP280;57377;45.130;6.038;2022-11-06T13:40:01;92415.47;;;16.94
40968;BMP280;57377;45.130;6.038;2022-11-06T13:42:44;92417.78;;;17.07
40968;BMP280;57377;45.130;6.038;2022-11-06T13:45:14;92417.31;;;16.94
40968;BMP280;57377;45.130;6.038;2022-11-06T13:59:09;92420.47;;;16.87
40968;BMP280;57377;45.130;6.038;2022-11-06T14:04:42;92416.41;;;16.78
40968;BMP280;57377;45.130;6.038;2022-11-06T14:07:14;92410.91;;;16.27
40968;BMP280;57377;45.130;6.038;2022-11-06T14:09:41;92414.50;;;16.23
40968;BMP280;57377;45.130;6.038;2022-11-06T14:12:21;92421.72;;;15.85
40968;BMP280;57377;45.130;6.038;2022-11-06T14:15:20;92415.78;;;15.97
40968;BMP280;57377;45.130;6.038;2022-11-06T14:18:00;92421.72;;;15.85
40968;BMP280;57377;45.130;6.038;2022-11-06T14:20:46;92421.09;;;15.88
40968;BMP280;57377;45.130;6.038;2022-11-06T14:26:10;92423.97;;;15.75
40968;BMP280;57377;45.130;6.038;2022-11-06T14:28:46;92414.41;;;15.50
40968;BMP280;57377;45.130;6.038;2022-11-06T14:31:58;92416.34;;;15.33
40968;BMP280;57377;45.130;6.038;2022-11-06T14:38:33;92427.31;;;15.27
40968;BMP280;57377;45.130;6.038;2022-11-06T14:41:52;92444.13;;;14.89
40968;BMP280;57377;45.130;6.038;2022-11-06T14:44:31;92441.25;;;14.65
40968;BMP280;57377;45.130;6.038;2022-11-06T14:51:05;92441.97;;;14.82
40968;BMP280;57377;45.130;6.038;2022-11-06T14:54:19;92442.50;;;14.68
40968;BMP280;57377;45.130;6.038;2022-11-06T14:56:52;92439.31;;;14.37
40968;BMP280;57377;45.130;6.038;2022-11-06T14:59:37;92438.34;;;14.58
40968;BMP280;57377;45.130;6.038;2022-11-06T15:02:31;92437.59;;;14.49
40968;BMP280;57377;45.130;6.038;2022-11-06T15:05:07;92450.41;;;14.26
40968;BMP280;57377;45.130;6.038;2022-11-06T15:07:51;92457.19;;;14.27
40968;BMP280;57377;45.130;6.038;2022-11-06T15:17:15;92467.47;;;14.40
40968;BMP280;57377;45.130;6.038;2022-11-06T15:19:56;92458.56;;;14.16
40968;BMP280;57377;45.130;6.038;2022-11-06T15:25:25;92465.16;;;13.97
40968;BMP280;57377;45.130;6.038;2022-11-06T15:28:26;92470.53;;;13.83
40968;BMP280;57377;45.130;6.038;2022-11-06T15:31:04;92475.34;;;14.07
40968;BMP280;57377;45.130;6.038;2022-11-06T15:34:06;92476.09;;;13.90
40968;BMP280;57377;45.130;6.038;2022-11-06T15:36:50;92476.09;;;13.90
40968;BMP280;57377;45.130;6.038;2022-11-06T15:40:03;92479.00;;;13.89
40968;BMP280;57377;45.130;6.038;2022-11-06T15:42:57;92500.00;;;13.42
40968;BMP280;57377;45.130;6.038;2022-11-06T15:45:26;92496.19;;;13.18
40968;BMP280;57377;45.130;6.038;2022-11-06T15:48:19;92496.28;;;13.43
40968;BMP280;57377;45.130;6.038;2022-11-06T15:50:47;92508.56;;;13.34
40968;BMP280;57377;45.130;6.038;2022-11-06T15:53:19;92501.69;;;13.46
40968;BMP280;57377;45.130;6.038;2022-11-06T15:56:37;92502.47;;;13.47
40968;BMP280;57377;45.130;6.038;2022-11-06T15:59:26;92498.81;;;13.65
40968;BMP280;57377;45.130;6.038;2022-11-06T16:04:45;92508.75;;;13.46
40968;BMP280;57377;45.130;6.038;2022-11-06T16:07:15;92501.47;;;12.96
40968;BMP280;57377;45.130;6.038;2022-11-06T16:09:41;92512.66;;;13.18
40968;BMP280;57377;45.130;6.038;2022-11-06T16:12:16;92502.38;;;13.22
40968;BMP280;57377;45.130;6.038;2022-11-06T16:14:43;92509.09;;;13.14
40968;BMP280;57377;45.130;6.038;2022-11-06T16:17:29;92509.59;;;13.25
40968;BMP280;57377;45.130;6.038;2022-11-06T16:19:58;92528.00;;;13.12
40968;BMP280;57377;45.130;6.038;2022-11-06T16:22:30;92519.50;;;12.54
40968;BMP280;57377;45.130;6.038;2022-11-06T16:25:05;92535.44;;;12.96
40968;BMP280;57377;45.130;6.038;2022-11-06T16:27:36;92527.59;;;12.96
40968;BMP280;57377;45.130;6.038;2022-11-06T16:30:17;92529.66;;;13.08
40968;BMP280;57377;45.130;6.038;2022-11-06T16:32:43;92529.31;;;13.01
40968;BMP280;57377;45.130;6.038;2022-11-06T16:35:28;92531.91;;;12.92
40968;BMP280;57377;45.130;6.038;2022-11-06T16:37:54;92517.28;;;13.21
40968;BMP280;57377;45.130;6.038;2022-11-06T16:40:51;92515.28;;;13.18
40968;BMP280;57377;45.130;6.038;2022-11-06T16:43:19;92518.31;;;13.12
40968;BMP280;57377;45.130;6.038;2022-11-06T16:45:58;92528.38;;;12.97
40968;BMP280;57377;45.130;6.038;2022-11-06T16:48:41;92524.34;;;12.91
40968;BMP280;57377;45.130;6.038;2022-11-06T16:51:11;92525.72;;;13.18
40968;BMP280;57377;45.130;6.038;2022-11-06T16:53:50;92535.38;;;13.18
40968;BMP280;57377;45.130;6.038;2022-11-06T16:56:21;92541.31;;;13.02
40968;BMP280;57377;45.130;6.038;2022-11-06T16:59:14;92551.41;;;12.73
40968;BMP280;57377;45.130;6.038;2022-11-06T17:01:43;92553.81;;;12.83
40968;BMP280;57377;45.130;6.038;2022-11-06T17:04:23;92550.09;;;12.84
40968;BMP280;57377;45.130;6.038;2022-11-06T17:06:53;92558.66;;;12.76
40968;BMP280;57377;45.130;6.038;2022-11-06T17:11:56;92563.75;;;12.59
40968;BMP280;57377;45.130;6.038;2022-11-06T17:14:22;92580.25;;;12.47
40968;BMP280;57377;45.130;6.038;2022-11-06T17:16:50;92584.97;;;12.45
40968;BMP280;57377;45.130;6.038;2022-11-06T17:19:20;92593.44;;;12.50
40968;BMP280;57377;45.130;6.038;2022-11-06T17:22:12;92579.28;;;12.64
40968;BMP280;57377;45.130;6.038;2022-11-06T17:24:55;92588.22;;;12.85
40968;BMP280;57377;45.130;6.038;2022-11-06T17:27:20;92592.59;;;12.98
40968;BMP280;57377;45.130;6.038;2022-11-06T17:29:46;92596.63;;;13.04
40968;BMP280;57377;45.130;6.038;2022-11-06T17:32:11;92604.63;;;12.29
40968;BMP280;57377;45.130;6.038;2022-11-06T17:34:36;92610.03;;;12.32
40968;BMP280;57377;45.130;6.038;2022-11-06T17:37:02;92604.44;;;12.60
40968;BMP280;57377;45.130;6.038;2022-11-06T17:39:27;92606.31;;;12.47
40968;BMP280;57377;45.130;6.038;2022-11-06T17:41:53;92598.44;;;12.60
40968;BMP280;57377;45.130;6.038;2022-11-06T17:44:18;92600.81;;;12.70
40968;BMP280;57377;45.130;6.038;2022-11-06T17:46:45;92603.72;;;12.68
40968;BMP280;57377;45.130;6.038;2022-11-06T17:49:12;92612.66;;;12.32
40968;BMP280;57377;45.130;6.038;2022-11-06T17:51:38;92626.00;;;12.52
40968;BMP280;57377;45.130;6.038;2022-11-06T17:54:26;92637.75;;;12.42
40968;BMP280;57377;45.130;6.038;2022-11-06T17:56:55;92632.38;;;12.60
40968;BMP280;57377;45.130;6.038;2022-11-06T17:59:21;92645.97;;;12.70
40968;BMP280;57377;45.130;6.038;2022-11-06T18:01:48;92649.50;;;12.52
40968;BMP280;57377;45.130;6.038;2022-11-06T18:04:15;92655.03;;;12.51
40968;BMP280;57377;45.130;6.038;2022-11-06T18:06:43;92647.25;;;12.59
40968;BMP280;57377;45.130;6.038;2022-11-06T18:09:10;92650.16;;;12.58
40968;BMP280;57377;45.130;6.038;2022-11-06T18:11:42;92641.59;;;12.79
40968;BMP280;57377;45.130;6.038;2022-11-06T18:14:08;92644.97;;;12.80
40968;BMP280;57377;45.130;6.038;2022-11-06T18:16:35;92645.13;;;12.61
40968;BMP280;57377;45.130;6.038;2022-11-06T18:19:04;92660.66;;;12.80
40968;BMP280;57377;45.130;6.038;2022-11-06T18:21:30;92649.41;;;12.92
40968;BMP280;57377;45.130;6.038;2022-11-06T18:23:56;92651.47;;;12.82
40968;BMP280;57377;45.130;6.038;2022-11-06T18:26:41;92667.16;;;12.55
40968;BMP280;57377;45.130;6.038;2022-11-06T18:29:07;92670.25;;;12.57
40968;BMP280;57377;45.130;6.038;2022-11-06T18:31:34;92679.88;;;12.49
40968;BMP280;57377;45.130;6.038;2022-11-06T18:34:00;92668.84;;;12.51
40968;BMP280;57377;45.130;6.038;2022-11-06T18:36:26;92662.75;;;12.56
40968;BMP280;57377;45.130;6.038;2022-11-06T18:38:51;92676.63;;;12.65
40968;BMP280;57377;45.130;6.038;2022-11-06T18:41:18;92677.59;;;12.55
40968;BMP280;57377;45.130;6.038;2022-11-06T18:43:44;92690.75;;;12.64